Time;durP1;ratioP1;P1;durP2;ratioP2;P2;SDS_P1;SDS_P2;PMS_P1;PMS_P2;Temp;Humidity;BMP_temperature;BMP_pressure;BME280_temperature;BME280_humidity;BME280_pressure;Samples;Min_cycle;Max_cycle;Signal;HPM_P1;HPM_P2
2021/12/31 00:02:20;;;;;;;1.50;1.30;;;;;;;12.06;100.00;154456.53;5007972;28;20453;-77
2021/12/31 00:04:56;;;;;;;2.00;1.17;;;;;;;12.06;100.00;154456.53;5008858;28;20442;-77
2021/12/31 00:07:33;;;;;;;3.27;1.33;;;;;;;12.09;100.00;154464.31;4977031;28;20517;-77
2021/12/31 00:10:09;;;;;;;2.43;1.80;;;;;;;12.09;100.00;154465.63;4977688;28;20441;-77
2021/12/31 00:12:45;;;;;;;1.90;1.70;;;;;;;12.07;100.00;154459.16;5006687;28;20484;-77
2021/12/31 00:15:20;;;;;;;1.70;1.40;;;;;;;12.07;100.00;154459.16;4991638;28;20540;-77
2021/12/31 00:17:56;;;;;;;3.10;1.50;;;;;;;12.05;100.00;154453.94;4991060;28;20441;-77
2021/12/31 00:20:32;;;;;;;2.80;1.77;;;;;;;12.04;100.00;154452.69;4976248;28;20449;-77
2021/12/31 00:23:11;;;;;;;1.90;1.33;;;;;;;12.03;100.00;154450.06;4975635;28;20456;-77
2021/12/31 00:25:47;;;;;;;5.13;1.77;;;;;;;12.04;100.00;154452.69;4976436;28;20477;-77
2021/12/31 00:28:23;;;;;;;1.63;1.30;;;;;;;12.03;100.00;154448.75;4976012;28;20778;-77
2021/12/31 00:30:59;;;;;;;2.40;1.40;;;;;;;11.98;100.00;154435.81;5007632;28;20944;-77
2021/12/31 00:33:35;;;;;;;1.30;1.10;;;;;;;11.97;100.00;154434.50;5007190;28;20477;-77
2021/12/31 00:36:10;;;;;;;1.87;1.47;;;;;;;11.97;100.00;154434.50;4979766;28;20450;-77
2021/12/31 00:38:47;;;;;;;1.43;1.27;;;;;;;11.94;100.00;154425.47;4996480;28;20551;-77
2021/12/31 00:41:23;;;;;;;1.90;1.20;;;;;;;11.96;100.00;154431.94;5001571;28;20442;-77
2021/12/31 00:43:59;;;;;;;2.33;1.50;;;;;;;11.91;100.00;154418.97;5011752;28;20535;-76
2021/12/31 00:46:34;;;;;;;4.10;1.60;;;;;;;11.86;100.00;154405.97;5011913;28;20453;-77
2021/12/31 00:49:10;;;;;;;1.87;1.50;;;;;;;11.87;100.00;154408.56;5010058;28;20481;-76
2021/12/31 00:51:46;;;;;;;1.90;1.50;;;;;;;11.86;100.00;154404.72;5010781;28;20449;-77
2021/12/31 00:54:23;;;;;;;3.10;1.80;;;;;;;11.84;100.00;154400.78;5005512;28;20976;-76
2021/12/31 00:57:02;;;;;;;1.70;1.40;;;;;;;11.85;100.00;154402.09;5018944;28;20449;-77
2021/12/31 00:59:38;;;;;;;1.63;1.37;;;;;;;11.83;100.00;154398.22;5010173;28;20469;-76
2021/12/31 01:02:16;;;;;;;1.73;1.37;;;;;;;11.80;100.00;154390.44;5011176;28;20441;-77
2021/12/31 01:04:51;;;;;;;1.90;1.10;;;;;;;11.80;100.00;154390.44;4979425;28;20480;-76
2021/12/31 01:07:27;;;;;;;3.53;1.90;;;;;;;11.77;100.00;154382.66;5010829;28;20928;-77
2021/12/31 01:10:06;;;;;;;1.73;1.47;;;;;;;11.75;100.00;154376.19;4996122;28;20485;-76
2021/12/31 01:12:42;;;;;;;4.90;1.77;;;;;;;11.69;100.00;154360.63;5027282;28;20472;-76
2021/12/31 01:15:22;;;;;;;1.80;1.40;;;;;;;11.69;100.00;154361.94;5011016;28;20457;-77
2021/12/31 01:18:27;;;;;;;1.77;1.50;;;;;;;11.68;100.00;154357.97;4994753;28;20483;-76
2021/12/31 01:21:02;;;;;;;2.43;1.60;;;;;;;11.66;100.00;154352.78;5010556;28;20445;-76
2021/12/31 01:23:38;;;;;;;2.17;1.50;;;;;;;11.66;100.00;154354.09;5010715;28;20461;-77
2021/12/31 01:26:15;;;;;;;2.03;1.53;;;;;;;11.63;100.00;154346.31;4979589;28;20437;-77
2021/12/31 01:28:50;;;;;;;2.17;1.60;;;;;;;11.63;100.00;154346.31;5010571;28;20453;-77
2021/12/31 01:31:26;;;;;;;1.80;1.20;;;;;;;11.55;100.00;154325.59;5027054;28;20441;-76
2021/12/31 01:34:02;;;;;;;1.77;1.57;;;;;;;11.55;100.00;154326.88;4993865;28;20461;-77
2021/12/31 01:36:37;;;;;;;2.27;1.50;;;;;;;11.53;100.00;154320.41;4979267;28;20870;-77
2021/12/31 01:39:12;;;;;;;1.90;1.40;;;;;;;11.47;100.00;154304.84;5010228;28;20453;-77
2021/12/31 01:41:49;;;;;;;1.97;1.50;;;;;;;11.39;100.00;154285.41;5010133;28;20471;-76
2021/12/31 01:44:28;;;;;;;1.83;1.50;;;;;;;11.36;100.00;154277.63;5010533;28;20437;-77
2021/12/31 01:47:09;;;;;;;2.83;1.47;;;;;;;11.32;100.00;154267.31;4992636;28;20441;-77
2021/12/31 01:49:55;;;;;;;1.83;1.20;;;;;;;11.28;100.00;154256.91;4994736;28;20453;-77
2021/12/31 01:52:30;;;;;;;4.70;1.53;;;;;;;11.26;100.00;154250.44;5010242;28;20500;-76
2021/12/31 01:55:07;;;;;;;1.37;1.20;;;;;;;11.18;100.00;154229.72;5008587;28;20453;-77
2021/12/31 01:57:44;;;;;;;2.30;1.60;;;;;;;11.14;100.00;154220.66;4994670;28;20944;-76
2021/12/31 02:00:19;;;;;;;2.47;1.40;;;;;;;11.14;100.00;154220.66;5011320;28;20449;-76
2021/12/31 02:02:55;;;;;;;1.90;1.40;;;;;;;11.09;100.00;154207.72;5010357;28;20442;-76
2021/12/31 02:05:31;;;;;;;2.40;1.17;;;;;;;11.06;100.00;154199.94;5026425;28;20449;-77
2021/12/31 02:08:06;;;;;;;2.07;1.60;;;;;;;11.05;100.00;154196.03;4964406;28;20469;-76
2021/12/31 02:10:41;;;;;;;2.20;1.57;;;;;;;11.04;100.00;154193.47;5009716;28;20453;-77
2021/12/31 02:13:19;;;;;;;1.90;1.67;;;;;;;10.99;100.00;154183.09;5009692;28;20477;-77
2021/12/31 02:15:54;;;;;;;1.87;1.50;;;;;;;10.94;100.00;154168.81;4978055;28;20520;-76
2021/12/31 02:18:31;;;;;;;2.73;1.60;;;;;;;10.92;100.00;154163.66;4978581;28;20533;-76
2021/12/31 02:21:10;;;;;;;1.70;1.03;;;;;;;10.85;100.00;154146.84;5009354;28;20437;-76
2021/12/31 02:23:48;;;;;;;3.03;1.80;;;;;;;10.83;100.00;154141.63;5009553;28;20540;-76
2021/12/31 02:26:24;;;;;;;1.63;1.43;;;;;;;10.78;100.00;154128.69;4978013;28;20449;-77
2021/12/31 02:28:59;;;;;;;1.93;1.30;;;;;;;10.76;100.00;154123.53;5009409;28;20457;-76
2021/12/31 02:31:35;;;;;;;1.60;1.20;;;;;;;10.73;100.00;154115.75;5025381;28;20441;-76
2021/12/31 02:34:11;;;;;;;2.87;1.40;;;;;;;10.70;100.00;154107.97;5009279;28;20484;-76
2021/12/31 02:36:49;;;;;;;3.20;1.70;;;;;;;10.69;100.00;154105.41;5009275;28;20445;-76
2021/12/31 02:39:24;;;;;;;5.10;1.93;;;;;;;10.64;100.00;154092.47;5011396;28;20531;-76
2021/12/31 02:42:00;;;;;;;4.03;1.80;;;;;;;10.62;100.00;154087.25;5009255;28;20429;-77
2021/12/31 02:44:35;;;;;;;2.07;1.30;;;;;;;10.58;100.00;154076.91;4977323;28;20477;-77
2021/12/31 02:47:11;;;;;;;1.77;1.37;;;;;;;10.51;100.00;154058.75;4992638;28;20477;-77
2021/12/31 02:49:48;;;;;;;1.77;1.37;;;;;;;10.50;100.00;154056.19;5008466;28;20777;-77
2021/12/31 02:52:26;;;;;;;1.90;1.40;;;;;;;10.48;100.00;154051.03;4993909;28;20445;-77
2021/12/31 02:55:02;;;;;;;2.70;1.70;;;;;;;10.45;100.00;154041.94;4993876;28;20933;-76
2021/12/31 02:57:38;;;;;;;2.03;1.20;;;;;;;10.39;100.00;154029.00;4992358;28;20540;-77
2021/12/31 03:00:14;;;;;;;2.50;1.53;;;;;;;10.36;100.00;154019.94;5008996;28;20858;-77
2021/12/31 03:02:50;;;;;;;3.87;1.60;;;;;;;10.37;100.00;154023.84;5008606;28;20444;-77
2021/12/31 03:05:26;;;;;;;2.37;1.40;;;;;;;10.33;100.00;154012.16;5008823;28;20477;-77
2021/12/31 03:08:04;;;;;;;2.37;1.30;;;;;;;10.31;100.00;154008.28;4992749;28;20449;-76
2021/12/31 03:10:40;;;;;;;1.83;1.50;;;;;;;10.27;100.00;153997.91;5008242;28;20501;-76
2021/12/31 03:13:16;;;;;;;2.00;1.30;;;;;;;10.26;100.00;153994.03;4992439;28;20560;-76
2021/12/31 03:15:52;;;;;;;2.47;1.67;;;;;;;10.27;100.00;153996.66;5007498;28;20437;-77
2021/12/31 03:18:28;;;;;;;2.90;1.40;;;;;;;10.24;100.00;153990.19;4992297;28;20450;-76
2021/12/31 03:21:08;;;;;;;2.23;1.37;;;;;;;10.23;100.00;153986.28;4991669;28;21011;-76
2021/12/31 03:23:45;;;;;;;2.40;1.43;;;;;;;10.20;100.00;153978.50;5008363;28;20528;-76
2021/12/31 03:26:21;;;;;;;2.40;1.37;;;;;;;10.15;100.00;153965.56;5007315;28;20476;-77
2021/12/31 03:28:56;;;;;;;1.63;1.37;;;;;;;10.10;100.00;153953.88;4992114;28;20453;-76
2021/12/31 03:31:32;;;;;;;2.27;1.27;;;;;;;10.13;100.00;153960.41;4991617;28;20819;-76
2021/12/31 03:34:10;;;;;;;2.73;1.20;;;;;;;10.09;100.00;153949.97;4993614;28;20473;-78
2021/12/31 03:36:46;;;;;;;1.50;1.20;;;;;;;10.08;100.00;153947.41;5008208;28;20860;-78
2021/12/31 03:39:23;;;;;;;1.60;1.40;;;;;;;10.08;100.00;153948.72;5025035;28;20449;-76
2021/12/31 03:41:58;;;;;;;2.13;1.37;;;;;;;10.04;100.00;153938.34;4984833;28;20445;-76
2021/12/31 03:44:33;;;;;;;1.70;1.10;;;;;;;10.07;100.00;153944.81;4991658;28;20442;-76
2021/12/31 03:47:09;;;;;;;1.77;1.53;;;;;;;10.08;100.00;153948.72;4992879;28;20568;-76
2021/12/31 03:49:45;;;;;;;1.70;1.30;;;;;;;10.11;100.00;153955.19;5007666;28;20441;-76
2021/12/31 03:52:20;;;;;;;1.97;1.23;;;;;;;10.07;100.00;153944.81;5008816;28;20871;-76
2021/12/31 03:54:57;;;;;;;2.10;1.27;;;;;;;10.10;100.00;153952.56;5007859;28;20417;-76
2021/12/31 03:57:33;;;;;;;2.70;1.30;;;;;;;10.04;100.00;153937.03;4976415;28;20445;-76
2021/12/31 04:00:11;;;;;;;2.77;1.70;;;;;;;10.01;100.00;153929.25;5007733;28;20837;-76
2021/12/31 04:02:46;;;;;;;1.93;1.40;;;;;;;10.02;100.00;153931.88;5007724;28;20477;-76
2021/12/31 04:05:22;;;;;;;2.57;1.50;;;;;;;9.95;100.00;153913.75;4976384;28;20469;-76
2021/12/31 04:07:57;;;;;;;1.90;1.40;;;;;;;9.89;100.00;153898.22;4991226;28;20667;-76
2021/12/31 04:10:34;;;;;;;2.07;1.50;;;;;;;9.82;100.00;153882.69;4994375;28;20848;-76
2021/12/31 04:13:10;;;;;;;3.10;1.50;;;;;;;9.84;100.00;153885.28;4980290;28;20509;-76
2021/12/31 04:15:45;;;;;;;1.67;1.20;;;;;;;9.82;100.00;153882.69;4995213;28;20449;-76
2021/12/31 04:18:22;;;;;;;1.70;1.13;;;;;;;9.82;100.00;153880.13;4979526;28;20480;-76
2021/12/31 04:20:58;;;;;;;1.70;1.40;;;;;;;9.83;100.00;153883.97;4989265;28;20449;-76
2021/12/31 04:23:36;;;;;;;3.50;2.07;;;;;;;9.81;100.00;153878.81;4996166;28;20453;-76
2021/12/31 04:26:13;;;;;;;1.70;1.00;;;;;;;9.78;100.00;153872.34;4995652;28;20464;-76
2021/12/31 04:28:49;;;;;;;1.83;1.20;;;;;;;9.77;100.00;153869.75;5012430;28;20445;-76
2021/12/31 04:31:24;;;;;;;2.60;1.87;;;;;;;9.77;100.00;153869.75;4995429;28;21022;-76
2021/12/31 04:34:04;;;;;;;1.97;1.20;;;;;;;9.82;100.00;153882.69;5011135;28;20579;-76
2021/12/31 04:36:40;;;;;;;2.23;1.40;;;;;;;9.77;100.00;153869.75;5027100;28;20843;-76
2021/12/31 04:39:15;;;;;;;2.40;1.80;;;;;;;9.78;100.00;153872.34;5011903;28;20480;-76
2021/12/31 04:41:53;;;;;;;2.80;1.47;;;;;;;9.76;100.00;153867.19;5010701;28;20548;-76
2021/12/31 04:44:28;;;;;;;2.40;1.70;;;;;;;9.74;100.00;153860.72;4979933;28;20542;-76
2021/12/31 04:47:06;;;;;;;2.13;1.30;;;;;;;9.73;100.00;153858.09;4979274;28;20437;-76
2021/12/31 04:49:42;;;;;;;1.50;1.40;;;;;;;9.71;100.00;153852.94;5010608;28;20485;-76
2021/12/31 04:52:17;;;;;;;2.23;1.60;;;;;;;9.69;100.00;153847.72;4994879;28;20445;-76
2021/12/31 04:54:53;;;;;;;2.70;1.50;;;;;;;9.64;100.00;153836.09;5005724;28;20891;-76
2021/12/31 04:57:30;;;;;;;2.37;1.17;;;;;;;9.59;100.00;153823.16;5014217;28;20815;-76
2021/12/31 05:00:07;;;;;;;1.50;1.20;;;;;;;9.55;100.00;153812.84;4960857;28;20493;-76
2021/12/31 05:02:43;;;;;;;2.30;1.57;;;;;;;9.52;100.00;153805.06;5002682;28;20433;-76
2021/12/31 05:05:18;;;;;;;2.70;1.70;;;;;;;9.49;100.00;153796.00;5011209;28;20489;-76
2021/12/31 05:07:54;;;;;;;1.60;1.30;;;;;;;9.46;100.00;153789.53;4994400;28;20441;-76
2021/12/31 05:10:31;;;;;;;1.70;1.57;;;;;;;9.42;100.00;153779.22;5011013;28;20444;-76
2021/12/31 05:13:10;;;;;;;1.80;1.30;;;;;;;9.38;100.00;153768.84;5011285;28;20779;-76
2021/12/31 05:15:48;;;;;;;1.80;1.33;;;;;;;9.36;100.00;153763.66;5010243;28;20483;-76
2021/12/31 05:18:23;;;;;;;3.40;2.27;;;;;;;9.36;100.00;153763.66;5008897;28;20442;-76
2021/12/31 05:21:08;;;;;;;1.87;1.23;;;;;;;9.33;100.00;153755.91;5006548;28;20477;-76
2021/12/31 05:23:43;;;;;;;2.50;1.20;;;;;;;9.29;100.00;153744.28;4991098;28;20442;-76
2021/12/31 05:26:19;;;;;;;2.20;1.63;;;;;;;9.28;100.00;153742.97;4990884;28;20442;-76
2021/12/31 05:28:56;;;;;;;1.40;1.30;;;;;;;9.23;100.00;153728.75;4961493;28;20438;-76
2021/12/31 05:31:31;;;;;;;1.50;1.20;;;;;;;9.21;100.00;153724.88;5010313;28;20532;-76
2021/12/31 05:34:07;;;;;;;1.30;1.10;;;;;;;9.18;100.00;153717.13;4994286;28;20465;-76
2021/12/31 05:36:43;;;;;;;2.03;1.67;;;;;;;9.21;100.00;153723.59;4993920;28;20438;-76
2021/12/31 05:39:18;;;;;;;3.20;1.43;;;;;;;9.20;100.00;153722.28;4993920;28;20450;-76
2021/12/31 05:41:55;;;;;;;1.93;1.30;;;;;;;9.21;100.00;153724.88;5010245;28;20799;-76
2021/12/31 05:44:32;;;;;;;4.30;1.47;;;;;;;9.16;100.00;153711.91;5009030;28;20457;-76
2021/12/31 05:47:08;;;;;;;2.53;1.70;;;;;;;9.14;100.00;153708.03;4994637;28;20778;-76
2021/12/31 05:49:43;;;;;;;2.17;1.60;;;;;;;9.10;100.00;153696.41;4977754;28;20441;-76
2021/12/31 05:52:19;;;;;;;2.40;1.50;;;;;;;9.07;100.00;153688.66;5008946;28;20437;-76
2021/12/31 05:54:54;;;;;;;2.83;1.37;;;;;;;9.06;100.00;153686.06;5021701;28;20473;-76
2021/12/31 05:57:30;;;;;;;1.97;1.77;;;;;;;9.05;100.00;153683.50;5007391;28;20626;-76
2021/12/31 06:00:08;;;;;;;2.23;1.60;;;;;;;9.02;100.00;153675.72;5012547;28;20511;-76
2021/12/31 06:02:44;;;;;;;3.30;1.60;;;;;;;9.01;100.00;153673.13;4985258;28;20823;-76
2021/12/31 06:05:19;;;;;;;1.80;1.33;;;;;;;8.98;100.00;153665.34;5003969;28;20453;-76
2021/12/31 06:07:57;;;;;;;1.70;1.40;;;;;;;8.98;100.00;153666.66;4987797;28;20508;-76
2021/12/31 06:10:33;;;;;;;2.53;1.77;;;;;;;9.00;100.00;153670.56;4984254;28;20482;-76
2021/12/31 06:13:08;;;;;;;2.10;1.47;;;;;;;8.97;100.00;153662.81;4993129;28;20465;-76
2021/12/31 06:15:48;;;;;;;1.90;1.70;;;;;;;8.95;100.00;153658.91;5024178;28;20453;-76
2021/12/31 06:18:23;;;;;;;2.43;1.70;;;;;;;8.97;100.00;153662.81;4969672;28;20454;-76
2021/12/31 06:20:59;;;;;;;3.13;1.60;;;;;;;8.97;100.00;153662.81;5007619;28;20453;-76
2021/12/31 06:23:34;;;;;;;1.90;1.43;;;;;;;8.94;100.00;153655.03;5009247;28;20525;-76
2021/12/31 06:26:10;;;;;;;2.20;2.00;;;;;;;8.92;100.00;153649.88;4973490;28;20469;-76
2021/12/31 06:28:46;;;;;;;2.27;1.77;;;;;;;8.87;100.00;153638.22;4987089;28;20578;-76
2021/12/31 06:31:23;;;;;;;2.00;1.40;;;;;;;8.88;100.00;153639.50;5003911;28;20454;-76
2021/12/31 06:33:59;;;;;;;2.23;1.73;;;;;;;8.92;100.00;153649.88;5026508;28;20986;-76
2021/12/31 06:36:34;;;;;;;2.00;1.50;;;;;;;8.92;100.00;153649.88;4981023;28;20457;-76
2021/12/31 06:39:10;;;;;;;6.30;1.80;;;;;;;8.93;100.00;153652.44;4991267;28;20464;-76
2021/12/31 06:41:45;;;;;;;2.10;1.43;;;;;;;8.91;100.00;153648.56;4990256;28;20781;-76
2021/12/31 06:44:21;;;;;;;3.53;1.70;;;;;;;8.86;100.00;153634.34;5017283;28;20532;-76
2021/12/31 06:46:58;;;;;;;2.53;1.87;;;;;;;8.82;100.00;153625.28;4992622;28;20437;-76
2021/12/31 06:49:33;;;;;;;3.23;1.73;;;;;;;8.83;100.00;153626.59;5008686;28;20449;-76
2021/12/31 06:52:09;;;;;;;2.80;1.40;;;;;;;8.81;100.00;153622.72;5006686;28;20532;-76
2021/12/31 06:54:44;;;;;;;3.17;1.50;;;;;;;8.83;100.00;153627.88;4991691;28;20973;-76
2021/12/31 06:57:20;;;;;;;2.07;1.73;;;;;;;8.79;100.00;153617.50;4983024;28;20447;-76
2021/12/31 06:59:55;;;;;;;1.97;1.77;;;;;;;8.81;100.00;153621.41;5013282;28;20440;-76
2021/12/31 07:02:32;;;;;;;2.60;1.73;;;;;;;8.74;100.00;153604.59;5010190;28;20944;-76
2021/12/31 07:05:08;;;;;;;3.10;1.67;;;;;;;8.71;100.00;153596.81;5008958;28;20442;-76
2021/12/31 07:07:44;;;;;;;1.80;1.50;;;;;;;8.71;100.00;153596.81;5008897;28;20445;-76
2021/12/31 07:10:19;;;;;;;2.10;1.63;;;;;;;8.66;100.00;153583.91;5008960;28;20844;-76
2021/12/31 07:12:58;;;;;;;2.13;1.50;;;;;;;8.68;100.00;153587.81;4992514;28;20500;-75
2021/12/31 07:15:34;;;;;;;2.40;1.67;;;;;;;8.68;100.00;153587.81;4989988;28;20474;-76
2021/12/31 07:18:12;;;;;;;2.10;1.50;;;;;;;8.68;100.00;153587.81;4989607;28;20445;-76
2021/12/31 07:20:48;;;;;;;2.40;2.17;;;;;;;8.66;100.00;153583.91;4990493;28;20455;-76
2021/12/31 07:23:25;;;;;;;2.73;1.90;;;;;;;8.66;100.00;153582.66;5000218;28;20940;-76
2021/12/31 07:26:02;;;;;;;3.10;2.60;;;;;;;8.69;100.00;153590.38;4975734;28;20783;-76
2021/12/31 07:28:38;;;;;;;3.20;2.00;;;;;;;8.66;100.00;153583.91;5024912;28;20434;-76
2021/12/31 07:31:14;;;;;;;2.43;1.90;;;;;;;8.68;100.00;153589.13;4993236;28;20444;-76
2021/12/31 07:33:51;;;;;;;2.13;1.93;;;;;;;8.71;100.00;153595.56;5007281;28;20438;-76
2021/12/31 07:36:27;;;;;;;4.27;2.10;;;;;;;8.72;100.00;153598.13;5007025;28;20465;-76
2021/12/31 07:39:06;;;;;;;2.57;1.90;;;;;;;8.76;100.00;153608.50;4991995;28;20452;-76
2021/12/31 07:41:42;;;;;;;3.17;2.37;;;;;;;8.83;100.00;153626.59;5007688;28;20469;-76
2021/12/31 07:44:18;;;;;;;4.43;2.37;;;;;;;8.85;100.00;153631.75;4990987;28;20434;-76
2021/12/31 07:46:53;;;;;;;3.50;2.30;;;;;;;8.90;100.00;153644.66;5007617;28;20425;-76
2021/12/31 07:49:30;;;;;;;2.93;2.23;;;;;;;8.96;100.00;153660.19;4974951;28;20932;-76
2021/12/31 07:52:06;;;;;;;3.17;2.87;;;;;;;9.01;100.00;153673.13;5006077;28;20511;-76
2021/12/31 07:54:42;;;;;;;4.03;2.60;;;;;;;9.02;100.00;153675.72;5006336;28;20473;-78
2021/12/31 07:57:17;;;;;;;3.60;2.50;;;;;;;9.06;100.00;153686.06;5006384;28;20864;-76
2021/12/31 07:59:53;;;;;;;3.40;2.70;;;;;;;9.08;100.00;153691.25;5019549;28;20437;-76
2021/12/31 08:02:28;;;;;;;4.00;2.90;;;;;;;9.13;100.00;153704.19;5009392;28;20440;-77
2021/12/31 08:05:06;;;;;;;3.77;2.67;;;;;;;9.16;100.00;153713.22;5010886;28;20784;-77
2021/12/31 08:07:41;;;;;;;3.40;2.60;;;;;;;9.19;100.00;153719.69;5025998;28;20445;-77
2021/12/31 08:10:17;;;;;;;3.33;2.80;;;;;;;9.17;100.00;153714.50;5009771;28;20461;-77
2021/12/31 08:12:53;;;;;;;3.20;2.87;;;;;;;9.19;100.00;153719.69;5007136;28;20904;-77
2021/12/31 08:15:28;;;;;;;4.80;3.50;;;;;;;9.24;100.00;153732.59;5024110;28;20473;-77
2021/12/31 08:18:04;;;;;;;5.40;3.67;;;;;;;9.26;100.00;153736.50;5008121;28;20433;-77
2021/12/31 08:20:41;;;;;;;4.13;3.00;;;;;;;9.29;100.00;153744.28;4991264;28;20774;-77
2021/12/31 08:23:17;;;;;;;3.90;3.20;;;;;;;9.28;100.00;153742.97;5008034;28;20441;-77
2021/12/31 08:25:52;;;;;;;4.80;3.07;;;;;;;9.32;100.00;153753.31;4986565;28;20779;-77
2021/12/31 08:28:28;;;;;;;4.87;3.20;;;;;;;9.32;100.00;153752.03;5006636;28;20952;-77
2021/12/31 08:31:03;;;;;;;3.60;3.30;;;;;;;9.34;100.00;153758.50;4993138;28;20437;-77
2021/12/31 08:33:40;;;;;;;3.17;2.70;;;;;;;9.35;100.00;153759.75;4976396;28;20425;-77
2021/12/31 08:36:17;;;;;;;4.37;3.70;;;;;;;9.42;100.00;153777.91;4991175;28;20473;-77
2021/12/31 08:38:52;;;;;;;4.13;3.70;;;;;;;9.46;100.00;153789.53;4991315;28;20453;-77
2021/12/31 08:41:28;;;;;;;4.53;3.63;;;;;;;9.50;100.00;153799.91;5007470;28;20456;-77
2021/12/31 08:44:04;;;;;;;4.17;3.30;;;;;;;9.53;100.00;153806.38;4991120;28;20449;-77
2021/12/31 08:46:40;;;;;;;3.80;3.40;;;;;;;9.55;100.00;153812.84;5007559;28;20810;-77
2021/12/31 08:49:16;;;;;;;4.40;3.80;;;;;;;9.57;100.00;153818.00;5006378;28;20528;-77
2021/12/31 08:51:53;;;;;;;3.67;3.03;;;;;;;9.59;100.00;153823.16;5007619;28;20540;-77
2021/12/31 08:54:29;;;;;;;4.77;3.03;;;;;;;9.62;100.00;153830.94;5006303;28;20828;-77
2021/12/31 08:57:05;;;;;;;3.20;2.83;;;;;;;9.62;100.00;153830.94;5010606;28;20449;-77
2021/12/31 08:59:40;;;;;;;4.60;3.60;;;;;;;9.63;100.00;153833.53;4988040;28;20457;-77
2021/12/31 09:02:16;;;;;;;5.03;3.17;;;;;;;9.66;100.00;153840.00;5012306;28;20924;-77
2021/12/31 09:04:52;;;;;;;4.67;4.00;;;;;;;9.67;100.00;153843.88;5011091;28;20448;-77
2021/12/31 09:07:28;;;;;;;4.47;3.70;;;;;;;9.68;100.00;153846.47;5011035;28;20448;-77
2021/12/31 09:10:05;;;;;;;4.00;3.20;;;;;;;9.69;100.00;153847.72;4979747;28;20473;-77
2021/12/31 09:12:40;;;;;;;4.13;3.20;;;;;;;9.71;100.00;153854.25;5010630;28;20928;-77
2021/12/31 09:15:16;;;;;;;4.20;3.80;;;;;;;9.75;100.00;153864.56;5010997;28;20547;-77
2021/12/31 09:17:54;;;;;;;4.47;3.70;;;;;;;9.74;100.00;153861.97;5010692;28;20453;-77
2021/12/31 09:20:30;;;;;;;4.63;3.80;;;;;;;9.80;100.00;153877.50;4994495;28;20450;-77
2021/12/31 09:23:07;;;;;;;3.80;3.50;;;;;;;9.87;100.00;153893.06;4994732;28;20428;-77
2021/12/31 09:25:43;;;;;;;4.10;3.67;;;;;;;9.87;100.00;153893.06;4995677;28;20437;-77
2021/12/31 09:28:19;;;;;;;4.60;3.17;;;;;;;9.91;100.00;153903.38;4994229;28;20449;-77
2021/12/31 09:30:55;;;;;;;3.50;3.07;;;;;;;9.91;100.00;153904.69;5010843;28;20473;-77
2021/12/31 09:33:30;;;;;;;3.53;2.83;;;;;;;9.95;100.00;153913.75;4995338;28;20413;-77
2021/12/31 09:36:06;;;;;;;3.70;3.10;;;;;;;9.95;100.00;153915.06;5045723;28;20480;-77
2021/12/31 09:38:43;;;;;;;7.53;3.57;;;;;;;10.03;100.00;153935.78;5030307;28;20440;-77
2021/12/31 09:41:20;;;;;;;3.37;3.00;;;;;;;10.09;100.00;153949.97;5024443;28;20461;-77
2021/12/31 09:43:55;;;;;;;3.53;2.50;;;;;;;10.09;100.00;153951.25;5010392;28;20437;-77
2021/12/31 09:46:31;;;;;;;3.30;3.00;;;;;;;10.14;100.00;153963.00;5010604;28;20528;-77
2021/12/31 09:49:07;;;;;;;2.50;2.30;;;;;;;10.15;100.00;153966.88;5010194;28;20469;-77
2021/12/31 09:51:43;;;;;;;3.27;2.97;;;;;;;10.21;100.00;153982.41;4993721;28;20981;-77
2021/12/31 09:54:22;;;;;;;3.80;3.00;;;;;;;10.25;100.00;153992.75;4995013;28;20418;-78
2021/12/31 09:56:57;;;;;;;2.37;2.17;;;;;;;10.30;100.00;154004.38;5010131;28;20452;-77
2021/12/31 09:59:33;;;;;;;2.70;2.50;;;;;;;10.34;100.00;154014.75;5010066;28;20445;-77
2021/12/31 10:02:09;;;;;;;3.57;2.70;;;;;;;10.35;100.00;154018.63;5017915;28;20460;-77
2021/12/31 10:04:52;;;;;;;3.27;2.53;;;;;;;10.38;100.00;154026.41;4998066;28;20472;-77
2021/12/31 10:07:29;;;;;;;3.47;2.90;;;;;;;10.42;100.00;154034.16;5012176;28;20452;-77
2021/12/31 10:10:09;;;;;;;2.63;2.43;;;;;;;10.48;100.00;154051.03;5010055;28;20446;-77
2021/12/31 10:12:50;;;;;;;4.70;3.10;;;;;;;10.49;100.00;154053.59;4994395;28;20414;-77
2021/12/31 10:15:26;;;;;;;3.40;2.60;;;;;;;10.64;100.00;154091.16;5009717;28;20477;-77
2021/12/31 10:18:09;;;;;;;3.57;2.73;;;;;;;10.66;100.00;154096.31;5026403;28;20453;-77
2021/12/31 10:20:49;;;;;;;3.30;2.73;;;;;;;10.67;100.00;154100.19;4993532;28;20438;-77
2021/12/31 10:23:24;;;;;;;4.20;3.30;;;;;;;10.68;100.00;154101.50;5009622;28;20805;-77
2021/12/31 10:26:10;;;;;;;4.27;3.40;;;;;;;10.81;100.00;154135.16;5009750;28;20470;-77
2021/12/31 10:28:54;;;;;;;3.97;3.00;;;;;;;10.86;100.00;154148.09;4989864;28;20485;-77
2021/12/31 10:31:29;;;;;;;4.23;3.20;;;;;;;10.83;100.00;154140.31;4974109;28;20450;-77
2021/12/31 10:34:04;;;;;;;3.83;3.10;;;;;;;10.82;100.00;154137.78;4973752;28;20812;-77
2021/12/31 10:36:40;;;;;;;3.97;3.50;;;;;;;10.82;100.00;154139.06;5008235;28;20460;-77
2021/12/31 10:39:18;;;;;;;6.37;4.80;;;;;;;10.91;100.00;154162.34;5029174;28;20523;-77
2021/12/31 10:42:05;;;;;;;4.60;3.87;;;;;;;10.85;100.00;154146.84;5001575;28;20478;-76
2021/12/31 10:44:42;;;;;;;6.43;4.33;;;;;;;10.89;100.00;154155.88;4992935;28;20928;-76
2021/12/31 10:47:21;;;;;;;4.67;3.40;;;;;;;10.93;100.00;154166.28;4992743;28;20481;-76
2021/12/31 10:50:14;;;;;;;5.73;4.10;;;;;;;10.99;100.00;154181.78;5009123;28;20916;-76
2021/12/31 10:52:56;;;;;;;4.53;3.63;;;;;;;10.96;100.00;154175.31;4993979;28;20755;-78
2021/12/31 10:55:34;;;;;;;4.37;3.63;;;;;;;11.02;100.00;154190.84;5009092;28;20468;-78
2021/12/31 10:58:14;;;;;;;4.00;3.60;;;;;;;11.00;100.00;154185.69;5009050;28;20433;-76
2021/12/31 11:00:49;;;;;;;4.70;3.60;;;;;;;10.97;100.00;154177.91;4992446;28;20460;-76
2021/12/31 11:03:25;;;;;;;3.57;3.17;;;;;;;11.01;100.00;154188.25;5028083;28;20794;-76
2021/12/31 11:06:01;;;;;;;4.20;3.70;;;;;;;11.08;100.00;154203.81;5028997;28;20444;-76
2021/12/31 11:08:36;;;;;;;5.70;4.20;;;;;;;11.07;100.00;154201.25;5012107;28;20456;-76
2021/12/31 11:11:14;;;;;;;4.27;3.80;;;;;;;11.17;100.00;154227.16;5028313;28;20440;-76
2021/12/31 11:13:51;;;;;;;5.30;4.47;;;;;;;11.11;100.00;154212.88;5028428;28;20445;-78
2021/12/31 11:16:26;;;;;;;4.33;3.40;;;;;;;11.14;100.00;154219.38;5019141;28;20742;-76
2021/12/31 11:19:02;;;;;;;4.80;4.10;;;;;;;11.11;100.00;154211.59;5007429;28;20442;-76
2021/12/31 11:21:38;;;;;;;4.50;3.67;;;;;;;11.09;100.00;154206.41;5008690;28;20444;-76
2021/12/31 11:24:30;;;;;;;4.30;3.30;;;;;;;11.18;100.00;154229.72;5008554;28;20805;-76
2021/12/31 11:27:29;;;;;;;4.70;3.57;;;;;;;11.21;100.00;154238.78;5025082;28;20445;-76
2021/12/31 11:30:06;;;;;;;3.40;3.07;;;;;;;11.21;100.00;154238.78;5008646;28;20540;-76
2021/12/31 11:32:56;;;;;;;3.93;3.03;;;;;;;11.33;100.00;154269.84;4991956;28;20548;-76
2021/12/31 11:35:38;;;;;;;4.57;4.17;;;;;;;11.37;100.00;154278.94;4995167;28;20472;-76
2021/12/31 11:38:15;;;;;;;4.63;3.60;;;;;;;11.45;100.00;154299.69;5028112;28;20429;-76
2021/12/31 11:41:02;;;;;;;5.00;3.97;;;;;;;11.48;100.00;154307.47;5025965;28;20460;-76
2021/12/31 11:43:39;;;;;;;4.27;3.83;;;;;;;11.57;100.00;154330.75;5024587;28;20524;-76
2021/12/31 11:46:33;;;;;;;8.37;3.23;;;;;;;11.57;100.00;154330.75;5009726;28;20445;-76
2021/12/31 11:49:19;;;;;;;4.30;3.80;;;;;;;11.48;100.00;154307.47;4976513;28;20481;-76
2021/12/31 11:52:06;;;;;;;4.07;3.67;;;;;;;11.53;100.00;154320.41;4988669;28;20945;-76
2021/12/31 11:54:42;;;;;;;4.33;3.93;;;;;;;11.56;100.00;154328.19;4988475;28;20450;-76
2021/12/31 11:57:20;;;;;;;4.07;3.10;;;;;;;11.52;100.00;154317.81;4972276;28;20581;-76
2021/12/31 11:59:56;;;;;;;4.40;3.27;;;;;;;11.51;100.00;154316.53;4972338;28;20454;-76
2021/12/31 12:02:40;;;;;;;4.47;3.60;;;;;;;11.53;100.00;154320.41;5012905;28;20452;-76
2021/12/31 12:05:16;;;;;;;3.73;3.40;;;;;;;11.55;100.00;154325.59;5012743;28;20817;-76
2021/12/31 12:07:52;;;;;;;5.27;4.07;;;;;;;11.65;100.00;154351.50;5014608;28;20791;-76